sensor_id;sensor_type;location;lat;lon;timestamp;P1;durP1;ratioP1;P2;durP2;ratioP2
39612;SDS011;25303;48.896;13.342;2022-09-27T00:02:18;6.07;;;4.07;;
39612;SDS011;25303;48.896;13.342;2022-09-27T00:05:01;6.00;;;4.07;;
39612;SDS011;25303;48.896;13.342;2022-09-27T00:07:43;6.05;;;3.85;;
39612;SDS011;25303;48.896;13.342;2022-09-27T00:10:27;5.60;;;4.00;;
39612;SDS011;25303;48.896;13.342;2022-09-27T00:13:10;5.22;;;3.45;;
39612;SDS011;25303;48.896;13.342;2022-09-27T00:15:57;4.38;;;3.33;;
39612;SDS011;25303;48.896;13.342;2022-09-27T00:18:42;5.45;;;3.65;;
39612;SDS011;25303;48.896;13.342;2022-09-27T00:21:25;5.32;;;3.80;;
39612;SDS011;25303;48.896;13.342;2022-09-27T00:24:11;6.47;;;3.83;;
39612;SDS011;25303;48.896;13.342;2022-09-27T00:26:54;6.45;;;4.50;;
39612;SDS011;25303;48.896;13.342;2022-09-27T00:29:37;6.57;;;3.90;;
39612;SDS011;25303;48.896;13.342;2022-09-27T00:32:21;7.60;;;4.45;;
39612;SDS011;25303;48.896;13.342;2022-09-27T00:35:04;6.18;;;4.60;;
39612;SDS011;25303;48.896;13.342;2022-09-27T00:37:47;6.15;;;4.65;;
39612;SDS011;25303;48.896;13.342;2022-09-27T00:40:30;6.15;;;4.63;;
39612;SDS011;25303;48.896;13.342;2022-09-27T00:43:15;8.55;;;5.03;;
39612;SDS011;25303;48.896;13.342;2022-09-27T00:46:00;8.13;;;4.72;;
39612;SDS011;25303;48.896;13.342;2022-09-27T00:48:46;7.80;;;4.63;;
39612;SDS011;25303;48.896;13.342;2022-09-27T00:51:34;5.85;;;4.28;;
39612;SDS011;25303;48.896;13.342;2022-09-27T00:54:19;5.35;;;4.07;;
39612;SDS011;25303;48.896;13.342;2022-09-27T00:59:48;5.60;;;4.35;;
39612;SDS011;25303;48.896;13.342;2022-09-27T01:02:34;5.50;;;3.85;;
39612;SDS011;25303;48.896;13.342;2022-09-27T01:05:21;5.10;;;3.47;;
39612;SDS011;25303;48.896;13.342;2022-09-27T01:08:06;7.20;;;4.30;;
39612;SDS011;25303;48.896;13.342;2022-09-27T01:10:52;6.47;;;4.22;;
39612;SDS011;25303;48.896;13.342;2022-09-27T01:13:50;4.97;;;3.80;;
39612;SDS011;25303;48.896;13.342;2022-09-27T01:16:52;4.57;;;3.47;;
39612;SDS011;25303;48.896;13.342;2022-09-27T01:19:49;4.75;;;3.47;;
39612;SDS011;25303;48.896;13.342;2022-09-27T01:22:53;5.10;;;3.67;;
39612;SDS011;25303;48.896;13.342;2022-09-27T01:25:54;4.72;;;3.30;;
39612;SDS011;25303;48.896;13.342;2022-09-27T01:28:50;4.68;;;3.30;;
39612;SDS011;25303;48.896;13.342;2022-09-27T01:31:42;4.78;;;3.33;;
39612;SDS011;25303;48.896;13.342;2022-09-27T01:34:32;6.30;;;3.63;;
39612;SDS011;25303;48.896;13.342;2022-09-27T01:37:23;7.53;;;5.13;;
39612;SDS011;25303;48.896;13.342;2022-09-27T01:40:16;6.55;;;3.90;;
39612;SDS011;25303;48.896;13.342;2022-09-27T01:43:33;4.40;;;3.10;;
39612;SDS011;25303;48.896;13.342;2022-09-27T01:46:20;7.00;;;4.25;;
39612;SDS011;25303;48.896;13.342;2022-09-27T01:49:38;10.68;;;6.15;;
39612;SDS011;25303;48.896;13.342;2022-09-27T01:52:27;7.18;;;4.70;;
39612;SDS011;25303;48.896;13.342;2022-09-27T01:55:13;6.30;;;4.30;;
39612;SDS011;25303;48.896;13.342;2022-09-27T01:58:20;7.25;;;5.18;;
39612;SDS011;25303;48.896;13.342;2022-09-27T02:01:11;8.15;;;4.82;;
39612;SDS011;25303;48.896;13.342;2022-09-27T02:03:56;9.98;;;5.03;;
39612;SDS011;25303;48.896;13.342;2022-09-27T02:07:19;7.72;;;4.72;;
39612;SDS011;25303;48.896;13.342;2022-09-27T02:10:09;6.75;;;4.47;;
39612;SDS011;25303;48.896;13.342;2022-09-27T02:13:05;9.63;;;5.65;;
39612;SDS011;25303;48.896;13.342;2022-09-27T02:15:56;6.95;;;4.63;;
39612;SDS011;25303;48.896;13.342;2022-09-27T02:18:55;8.80;;;5.57;;
39612;SDS011;25303;48.896;13.342;2022-09-27T02:21:49;7.55;;;5.38;;
39612;SDS011;25303;48.896;13.342;2022-09-27T02:24:39;7.15;;;4.68;;
39612;SDS011;25303;48.896;13.342;2022-09-27T02:27:27;7.13;;;4.45;;
39612;SDS011;25303;48.896;13.342;2022-09-27T02:30:13;7.88;;;4.30;;
39612;SDS011;25303;48.896;13.342;2022-09-27T02:33:01;6.72;;;3.95;;
39612;SDS011;25303;48.896;13.342;2022-09-27T02:35:44;8.57;;;4.72;;
39612;SDS011;25303;48.896;13.342;2022-09-27T02:38:27;6.78;;;3.35;;
39612;SDS011;25303;48.896;13.342;2022-09-27T02:41:14;4.68;;;2.60;;
39612;SDS011;25303;48.896;13.342;2022-09-27T02:43:59;4.57;;;2.83;;
39612;SDS011;25303;48.896;13.342;2022-09-27T02:50:16;7.53;;;4.35;;
39612;SDS011;25303;48.896;13.342;2022-09-27T02:53:37;6.90;;;3.45;;
39612;SDS011;25303;48.896;13.342;2022-09-27T02:56:59;5.90;;;3.97;;
39612;SDS011;25303;48.896;13.342;2022-09-27T03:00:13;5.32;;;3.67;;
39612;SDS011;25303;48.896;13.342;2022-09-27T03:03:11;5.70;;;2.70;;
39612;SDS011;25303;48.896;13.342;2022-09-27T03:06:10;5.70;;;3.17;;
39612;SDS011;25303;48.896;13.342;2022-09-27T03:08:56;4.20;;;2.40;;
39612;SDS011;25303;48.896;13.342;2022-09-27T03:11:39;6.43;;;3.03;;
39612;SDS011;25303;48.896;13.342;2022-09-27T03:14:23;5.13;;;3.35;;
39612;SDS011;25303;48.896;13.342;2022-09-27T03:17:14;3.28;;;2.53;;
39612;SDS011;25303;48.896;13.342;2022-09-27T03:20:33;3.88;;;2.60;;
39612;SDS011;25303;48.896;13.342;2022-09-27T03:23:27;3.60;;;2.83;;
39612;SDS011;25303;48.896;13.342;2022-09-27T03:26:11;3.77;;;2.07;;
39612;SDS011;25303;48.896;13.342;2022-09-27T03:28:54;2.72;;;1.70;;
39612;SDS011;25303;48.896;13.342;2022-09-27T03:31:38;3.13;;;2.10;;
39612;SDS011;25303;48.896;13.342;2022-09-27T03:34:55;3.40;;;1.90;;
39612;SDS011;25303;48.896;13.342;2022-09-27T03:37:38;2.55;;;1.70;;
39612;SDS011;25303;48.896;13.342;2022-09-27T03:40:21;2.67;;;1.80;;
39612;SDS011;25303;48.896;13.342;2022-09-27T03:43:04;2.42;;;1.98;;
39612;SDS011;25303;48.896;13.342;2022-09-27T03:45:47;3.00;;;1.90;;
39612;SDS011;25303;48.896;13.342;2022-09-27T03:48:32;3.60;;;2.20;;
39612;SDS011;25303;48.896;13.342;2022-09-27T03:51:15;3.63;;;2.20;;
39612;SDS011;25303;48.896;13.342;2022-09-27T03:53:58;2.42;;;1.98;;
39612;SDS011;25303;48.896;13.342;2022-09-27T03:56:41;8.45;;;2.63;;
39612;SDS011;25303;48.896;13.342;2022-09-27T03:59:25;16.90;;;3.13;;
39612;SDS011;25303;48.896;13.342;2022-09-27T04:02:26;7.63;;;3.10;;
39612;SDS011;25303;48.896;13.342;2022-09-27T04:05:40;3.45;;;2.55;;
39612;SDS011;25303;48.896;13.342;2022-09-27T04:08:28;84.82;;;4.20;;
39612;SDS011;25303;48.896;13.342;2022-09-27T04:11:11;4.70;;;2.03;;
39612;SDS011;25303;48.896;13.342;2022-09-27T04:13:56;2.53;;;1.80;;
39612;SDS011;25303;48.896;13.342;2022-09-27T04:16:39;3.35;;;1.80;;
39612;SDS011;25303;48.896;13.342;2022-09-27T04:19:42;2.10;;;1.40;;
39612;SDS011;25303;48.896;13.342;2022-09-27T04:22:27;2.08;;;1.30;;
39612;SDS011;25303;48.896;13.342;2022-09-27T04:25:10;2.90;;;1.63;;
39612;SDS011;25303;48.896;13.342;2022-09-27T04:27:54;3.10;;;1.80;;
39612;SDS011;25303;48.896;13.342;2022-09-27T04:30:37;2.45;;;1.50;;
39612;SDS011;25303;48.896;13.342;2022-09-27T04:33:48;1.70;;;1.33;;
39612;SDS011;25303;48.896;13.342;2022-09-27T04:36:33;1.77;;;1.17;;
39612;SDS011;25303;48.896;13.342;2022-09-27T04:39:26;1.83;;;1.30;;
39612;SDS011;25303;48.896;13.342;2022-09-27T04:42:09;2.42;;;1.10;;
39612;SDS011;25303;48.896;13.342;2022-09-27T04:44:52;2.03;;;1.20;;
39612;SDS011;25303;48.896;13.342;2022-09-27T04:47:35;1.80;;;1.20;;
39612;SDS011;25303;48.896;13.342;2022-09-27T04:50:18;2.00;;;1.20;;
39612;SDS011;25303;48.896;13.342;2022-09-27T04:53:15;1.63;;;1.10;;
39612;SDS011;25303;48.896;13.342;2022-09-27T04:55:59;1.95;;;1.20;;
39612;SDS011;25303;48.896;13.342;2022-09-27T04:58:47;2.10;;;0.90;;
39612;SDS011;25303;48.896;13.342;2022-09-27T05:01:30;1.67;;;1.20;;
39612;SDS011;25303;48.896;13.342;2022-09-27T05:04:26;1.80;;;1.10;;
39612;SDS011;25303;48.896;13.342;2022-09-27T05:07:10;1.30;;;1.00;;
39612;SDS011;25303;48.896;13.342;2022-09-27T05:09:57;3.70;;;1.10;;
39612;SDS011;25303;48.896;13.342;2022-09-27T05:12:42;1.40;;;0.88;;
39612;SDS011;25303;48.896;13.342;2022-09-27T05:15:28;0.90;;;0.70;;
39612;SDS011;25303;48.896;13.342;2022-09-27T05:18:29;1.48;;;0.80;;
39612;SDS011;25303;48.896;13.342;2022-09-27T05:21:31;1.55;;;0.90;;
39612;SDS011;25303;48.896;13.342;2022-09-27T05:24:13;1.23;;;0.70;;
39612;SDS011;25303;48.896;13.342;2022-09-27T05:26:56;1.50;;;0.90;;
39612;SDS011;25303;48.896;13.342;2022-09-27T05:29:41;2.45;;;0.88;;
39612;SDS011;25303;48.896;13.342;2022-09-27T05:32:38;1.92;;;0.90;;
39612;SDS011;25303;48.896;13.342;2022-09-27T05:35:52;1.20;;;0.80;;
39612;SDS011;25303;48.896;13.342;2022-09-27T05:38:40;1.50;;;1.00;;
39612;SDS011;25303;48.896;13.342;2022-09-27T05:41:23;1.45;;;0.80;;
39612;SDS011;25303;48.896;13.342;2022-09-27T05:44:07;1.52;;;0.90;;
39612;SDS011;25303;48.896;13.342;2022-09-27T05:47:00;1.02;;;0.80;;
39612;SDS011;25303;48.896;13.342;2022-09-27T05:49:45;1.05;;;0.80;;
39612;SDS011;25303;48.896;13.342;2022-09-27T05:52:28;1.35;;;1.00;;
39612;SDS011;25303;48.896;13.342;2022-09-27T05:55:11;1.88;;;0.70;;
39612;SDS011;25303;48.896;13.342;2022-09-27T05:57:54;1.70;;;0.95;;
39612;SDS011;25303;48.896;13.342;2022-09-27T06:00:44;1.38;;;0.88;;
39612;SDS011;25303;48.896;13.342;2022-09-27T06:03:49;1.08;;;0.90;;
39612;SDS011;25303;48.896;13.342;2022-09-27T06:06:59;2.60;;;0.85;;
39612;SDS011;25303;48.896;13.342;2022-09-27T06:09:42;1.90;;;0.93;;
39612;SDS011;25303;48.896;13.342;2022-09-27T06:12:26;2.08;;;1.40;;
39612;SDS011;25303;48.896;13.342;2022-09-27T06:15:09;1.98;;;1.20;;
39612;SDS011;25303;48.896;13.342;2022-09-27T06:17:56;2.08;;;1.30;;
39612;SDS011;25303;48.896;13.342;2022-09-27T06:20:45;3.83;;;1.30;;
39612;SDS011;25303;48.896;13.342;2022-09-27T06:23:28;3.60;;;1.10;;
39612;SDS011;25303;48.896;13.342;2022-09-27T06:26:16;1.17;;;1.00;;
39612;SDS011;25303;48.896;13.342;2022-09-27T06:29:15;1.35;;;1.05;;
39612;SDS011;25303;48.896;13.342;2022-09-27T06:32:05;1.55;;;1.10;;
39612;SDS011;25303;48.896;13.342;2022-09-27T06:35:14;2.35;;;1.20;;
39612;SDS011;25303;48.896;13.342;2022-09-27T06:38:01;2.03;;;1.10;;
39612;SDS011;25303;48.896;13.342;2022-09-27T06:40:46;1.13;;;0.90;;
39612;SDS011;25303;48.896;13.342;2022-09-27T06:43:35;1.95;;;1.10;;
39612;SDS011;25303;48.896;13.342;2022-09-27T06:46:21;1.45;;;1.05;;
39612;SDS011;25303;48.896;13.342;2022-09-27T06:49:22;2.55;;;1.63;;
39612;SDS011;25303;48.896;13.342;2022-09-27T06:52:05;2.05;;;1.30;;
39612;SDS011;25303;48.896;13.342;2022-09-27T06:54:50;2.60;;;1.50;;
39612;SDS011;25303;48.896;13.342;2022-09-27T06:57:34;3.28;;;1.65;;
39612;SDS011;25303;48.896;13.342;2022-09-27T07:00:35;2.70;;;1.80;;
39612;SDS011;25303;48.896;13.342;2022-09-27T07:03:48;2.13;;;1.58;;
39612;SDS011;25303;48.896;13.342;2022-09-27T07:06:41;2.93;;;1.60;;
39612;SDS011;25303;48.896;13.342;2022-09-27T07:09:36;3.08;;;2.03;;
39612;SDS011;25303;48.896;13.342;2022-09-27T07:15:07;3.75;;;2.17;;
39612;SDS011;25303;48.896;13.342;2022-09-27T07:17:54;3.03;;;1.90;;
39612;SDS011;25303;48.896;13.342;2022-09-27T07:20:39;2.42;;;1.58;;
39612;SDS011;25303;48.896;13.342;2022-09-27T07:23:23;3.30;;;1.60;;
39612;SDS011;25303;48.896;13.342;2022-09-27T07:26:08;2.38;;;1.40;;
39612;SDS011;25303;48.896;13.342;2022-09-27T07:28:54;2.38;;;1.60;;
39612;SDS011;25303;48.896;13.342;2022-09-27T07:31:39;2.38;;;1.70;;
39612;SDS011;25303;48.896;13.342;2022-09-27T07:34:23;2.13;;;1.50;;
39612;SDS011;25303;48.896;13.342;2022-09-27T07:37:06;2.13;;;1.35;;
39612;SDS011;25303;48.896;13.342;2022-09-27T07:39:52;1.63;;;1.13;;
39612;SDS011;25303;48.896;13.342;2022-09-27T07:42:35;1.88;;;1.45;;
39612;SDS011;25303;48.896;13.342;2022-09-27T07:45:21;2.20;;;1.38;;
39612;SDS011;25303;48.896;13.342;2022-09-27T07:48:16;1.75;;;1.05;;
39612;SDS011;25303;48.896;13.342;2022-09-27T07:51:18;4.72;;;2.47;;
39612;SDS011;25303;48.896;13.342;2022-09-27T07:54:07;3.55;;;1.80;;
39612;SDS011;25303;48.896;13.342;2022-09-27T07:57:08;3.58;;;1.80;;
39612;SDS011;25303;48.896;13.342;2022-09-27T08:00:04;5.22;;;2.10;;
39612;SDS011;25303;48.896;13.342;2022-09-27T08:02:54;5.53;;;2.55;;
39612;SDS011;25303;48.896;13.342;2022-09-27T08:05:37;4.18;;;2.30;;
39612;SDS011;25303;48.896;13.342;2022-09-27T08:08:20;10.07;;;3.53;;
39612;SDS011;25303;48.896;13.342;2022-09-27T08:11:10;8.25;;;3.33;;
39612;SDS011;25303;48.896;13.342;2022-09-27T08:13:53;6.07;;;2.50;;
39612;SDS011;25303;48.896;13.342;2022-09-27T08:16:42;5.60;;;1.90;;
39612;SDS011;25303;48.896;13.342;2022-09-27T08:19:42;4.90;;;2.20;;
39612;SDS011;25303;48.896;13.342;2022-09-27T08:22:41;3.90;;;1.77;;
39612;SDS011;25303;48.896;13.342;2022-09-27T08:25:39;1.92;;;1.10;;
39612;SDS011;25303;48.896;13.342;2022-09-27T08:28:46;2.90;;;1.23;;
39612;SDS011;25303;48.896;13.342;2022-09-27T08:31:32;2.72;;;1.17;;
39612;SDS011;25303;48.896;13.342;2022-09-27T08:34:15;1.77;;;0.80;;
39612;SDS011;25303;48.896;13.342;2022-09-27T08:36:59;3.30;;;1.20;;
39612;SDS011;25303;48.896;13.342;2022-09-27T08:39:42;3.85;;;1.30;;
39612;SDS011;25303;48.896;13.342;2022-09-27T08:42:31;3.35;;;1.38;;
39612;SDS011;25303;48.896;13.342;2022-09-27T08:45:24;7.13;;;2.70;;
39612;SDS011;25303;48.896;13.342;2022-09-27T08:48:12;7.03;;;2.65;;
39612;SDS011;25303;48.896;13.342;2022-09-27T08:50:58;5.38;;;2.15;;
39612;SDS011;25303;48.896;13.342;2022-09-27T08:53:48;3.30;;;1.90;;
39612;SDS011;25303;48.896;13.342;2022-09-27T08:56:35;3.53;;;1.50;;
39612;SDS011;25303;48.896;13.342;2022-09-27T08:59:19;4.38;;;1.70;;
39612;SDS011;25303;48.896;13.342;2022-09-27T09:02:11;5.07;;;1.90;;
39612;SDS011;25303;48.896;13.342;2022-09-27T09:05:01;6.78;;;1.40;;
39612;SDS011;25303;48.896;13.342;2022-09-27T09:07:52;4.88;;;1.83;;
39612;SDS011;25303;48.896;13.342;2022-09-27T09:10:52;2.17;;;1.10;;
39612;SDS011;25303;48.896;13.342;2022-09-27T09:14:16;1.85;;;0.63;;
39612;SDS011;25303;48.896;13.342;2022-09-27T09:17:11;2.88;;;0.90;;
39612;SDS011;25303;48.896;13.342;2022-09-27T09:20:33;2.30;;;0.70;;
39612;SDS011;25303;48.896;13.342;2022-09-27T09:23:32;1.83;;;0.65;;
39612;SDS011;25303;48.896;13.342;2022-09-27T09:26:26;2.58;;;1.00;;
39612;SDS011;25303;48.896;13.342;2022-09-27T09:29:25;1.70;;;0.77;;
39612;SDS011;25303;48.896;13.342;2022-09-27T09:32:20;2.30;;;1.17;;
39612;SDS011;25303;48.896;13.342;2022-09-27T09:35:12;2.40;;;1.20;;
39612;SDS011;25303;48.896;13.342;2022-09-27T09:37:59;2.67;;;1.30;;
39612;SDS011;25303;48.896;13.342;2022-09-27T09:40:46;4.50;;;1.63;;
39612;SDS011;25303;48.896;13.342;2022-09-27T09:43:36;5.10;;;2.15;;
39612;SDS011;25303;48.896;13.342;2022-09-27T09:46:27;2.90;;;1.27;;
39612;SDS011;25303;48.896;13.342;2022-09-27T09:49:19;4.43;;;1.80;;
39612;SDS011;25303;48.896;13.342;2022-09-27T09:52:06;2.83;;;1.50;;
39612;SDS011;25303;48.896;13.342;2022-09-27T09:54:54;2.88;;;1.20;;
39612;SDS011;25303;48.896;13.342;2022-09-27T09:57:48;3.05;;;1.70;;
39612;SDS011;25303;48.896;13.342;2022-09-27T10:03:37;2.15;;;1.20;;
39612;SDS011;25303;48.896;13.342;2022-09-27T10:06:20;2.25;;;0.90;;
39612;SDS011;25303;48.896;13.342;2022-09-27T10:09:07;1.58;;;0.80;;
39612;SDS011;25303;48.896;13.342;2022-09-27T10:11:57;2.70;;;0.80;;
39612;SDS011;25303;48.896;13.342;2022-09-27T10:14:43;2.05;;;0.80;;
39612;SDS011;25303;48.896;13.342;2022-09-27T10:17:33;0.82;;;0.60;;
39612;SDS011;25303;48.896;13.342;2022-09-27T10:20:23;1.90;;;0.70;;
39612;SDS011;25303;48.896;13.342;2022-09-27T10:23:12;1.88;;;0.80;;
39612;SDS011;25303;48.896;13.342;2022-09-27T10:26:17;1.95;;;0.70;;
39612;SDS011;25303;48.896;13.342;2022-09-27T10:29:13;1.65;;;0.80;;
39612;SDS011;25303;48.896;13.342;2022-09-27T10:31:58;2.38;;;0.73;;
39612;SDS011;25303;48.896;13.342;2022-09-27T10:34:53;1.77;;;0.68;;
39612;SDS011;25303;48.896;13.342;2022-09-27T10:37:37;2.03;;;0.60;;
39612;SDS011;25303;48.896;13.342;2022-09-27T10:40:25;0.88;;;0.50;;
39612;SDS011;25303;48.896;13.342;2022-09-27T10:43:21;1.48;;;0.57;;
39612;SDS011;25303;48.896;13.342;2022-09-27T10:46:19;3.13;;;0.80;;
39612;SDS011;25303;48.896;13.342;2022-09-27T10:49:16;2.03;;;0.95;;
39612;SDS011;25303;48.896;13.342;2022-09-27T10:52:04;3.10;;;0.80;;
39612;SDS011;25303;48.896;13.342;2022-09-27T10:54:53;3.42;;;0.82;;
39612;SDS011;25303;48.896;13.342;2022-09-27T10:57:38;1.42;;;0.70;;
39612;SDS011;25303;48.896;13.342;2022-09-27T11:00:28;1.08;;;0.73;;
39612;SDS011;25303;48.896;13.342;2022-09-27T11:03:13;1.70;;;1.00;;
39612;SDS011;25303;48.896;13.342;2022-09-27T11:05:58;2.47;;;1.45;;
39612;SDS011;25303;48.896;13.342;2022-09-27T11:08:43;1.53;;;0.60;;
39612;SDS011;25303;48.896;13.342;2022-09-27T11:11:30;0.90;;;0.55;;
39612;SDS011;25303;48.896;13.342;2022-09-27T11:14:17;1.08;;;0.40;;
39612;SDS011;25303;48.896;13.342;2022-09-27T11:17:06;1.13;;;0.40;;
39612;SDS011;25303;48.896;13.342;2022-09-27T11:23:10;1.10;;;0.30;;
39612;SDS011;25303;48.896;13.342;2022-09-27T11:26:16;0.80;;;0.38;;
39612;SDS011;25303;48.896;13.342;2022-09-27T11:29:12;0.98;;;0.40;;
39612;SDS011;25303;48.896;13.342;2022-09-27T11:32:26;0.30;;;0.30;;
39612;SDS011;25303;48.896;13.342;2022-09-27T11:35:21;0.47;;;0.30;;
39612;SDS011;25303;48.896;13.342;2022-09-27T11:38:29;0.50;;;0.30;;
39612;SDS011;25303;48.896;13.342;2022-09-27T11:41:51;0.98;;;0.20;;
39612;SDS011;25303;48.896;13.342;2022-09-27T11:44:58;0.43;;;0.20;;
39612;SDS011;25303;48.896;13.342;2022-09-27T11:48:19;0.40;;;0.40;;
39612;SDS011;25303;48.896;13.342;2022-09-27T11:51:18;0.28;;;0.20;;
39612;SDS011;25303;48.896;13.342;2022-09-27T11:54:19;0.30;;;0.30;;
39612;SDS011;25303;48.896;13.342;2022-09-27T11:57:14;0.40;;;0.30;;
39612;SDS011;25303;48.896;13.342;2022-09-27T12:00:07;0.35;;;0.20;;
39612;SDS011;25303;48.896;13.342;2022-09-27T12:06:21;0.73;;;0.40;;
39612;SDS011;25303;48.896;13.342;2022-09-27T12:09:15;1.88;;;0.30;;
39612;SDS011;25303;48.896;13.342;2022-09-27T12:12:03;1.38;;;0.40;;
39612;SDS011;25303;48.896;13.342;2022-09-27T12:14:52;1.75;;;0.40;;
39612;SDS011;25303;48.896;13.342;2022-09-27T12:17:49;1.10;;;0.50;;
39612;SDS011;25303;48.896;13.342;2022-09-27T12:20:37;0.35;;;0.32;;
39612;SDS011;25303;48.896;13.342;2022-09-27T12:23:25;0.98;;;0.43;;
39612;SDS011;25303;48.896;13.342;2022-09-27T12:26:28;0.28;;;0.25;;
39612;SDS011;25303;48.896;13.342;2022-09-27T12:29:19;0.73;;;0.40;;
39612;SDS011;25303;48.896;13.342;2022-09-27T12:32:10;1.00;;;0.40;;
39612;SDS011;25303;48.896;13.342;2022-09-27T12:35:00;0.40;;;0.40;;
39612;SDS011;25303;48.896;13.342;2022-09-27T12:37:47;1.58;;;0.40;;
39612;SDS011;25303;48.896;13.342;2022-09-27T12:40:37;0.60;;;0.40;;
39612;SDS011;25303;48.896;13.342;2022-09-27T12:43:26;1.33;;;0.47;;
39612;SDS011;25303;48.896;13.342;2022-09-27T12:46:26;0.55;;;0.40;;
39612;SDS011;25303;48.896;13.342;2022-09-27T12:49:22;0.28;;;0.28;;
39612;SDS011;25303;48.896;13.342;2022-09-27T12:52:16;1.08;;;0.40;;
39612;SDS011;25303;48.896;13.342;2022-09-27T12:58:33;0.60;;;0.20;;
39612;SDS011;25303;48.896;13.342;2022-09-27T13:01:44;0.20;;;0.20;;
39612;SDS011;25303;48.896;13.342;2022-09-27T13:04:47;0.50;;;0.30;;
39612;SDS011;25303;48.896;13.342;2022-09-27T13:10:34;1.13;;;0.50;;
39612;SDS011;25303;48.896;13.342;2022-09-27T13:13:40;0.55;;;0.52;;
39612;SDS011;25303;48.896;13.342;2022-09-27T13:16:25;1.02;;;0.68;;
39612;SDS011;25303;48.896;13.342;2022-09-27T13:19:20;1.30;;;0.70;;
39612;SDS011;25303;48.896;13.342;2022-09-27T13:25:46;1.20;;;0.60;;
39612;SDS011;25303;48.896;13.342;2022-09-27T13:35:29;1.17;;;0.70;;
39612;SDS011;25303;48.896;13.342;2022-09-27T13:38:23;1.13;;;0.63;;
39612;SDS011;25303;48.896;13.342;2022-09-27T13:41:14;1.52;;;0.50;;
39612;SDS011;25303;48.896;13.342;2022-09-27T13:44:06;0.45;;;0.40;;
39612;SDS011;25303;48.896;13.342;2022-09-27T13:47:02;0.88;;;0.40;;
39612;SDS011;25303;48.896;13.342;2022-09-27T13:49:56;1.80;;;0.98;;
39612;SDS011;25303;48.896;13.342;2022-09-27T13:52:56;0.90;;;0.70;;
39612;SDS011;25303;48.896;13.342;2022-09-27T13:55:48;0.90;;;0.47;;
39612;SDS011;25303;48.896;13.342;2022-09-27T13:58:50;0.80;;;0.60;;
39612;SDS011;25303;48.896;13.342;2022-09-27T14:01:58;0.77;;;0.60;;
39612;SDS011;25303;48.896;13.342;2022-09-27T14:04:53;0.75;;;0.50;;
39612;SDS011;25303;48.896;13.342;2022-09-27T14:07:40;0.93;;;0.57;;
39612;SDS011;25303;48.896;13.342;2022-09-27T14:10:28;1.60;;;0.95;;
39612;SDS011;25303;48.896;13.342;2022-09-27T14:13:17;2.13;;;0.85;;
39612;SDS011;25303;48.896;13.342;2022-09-27T14:18:57;3.92;;;1.05;;
39612;SDS011;25303;48.896;13.342;2022-09-27T14:21:47;30.58;;;8.65;;
39612;SDS011;25303;48.896;13.342;2022-09-27T14:24:57;8.55;;;3.00;;
39612;SDS011;25303;48.896;13.342;2022-09-27T14:27:50;5.10;;;2.05;;
39612;SDS011;25303;48.896;13.342;2022-09-27T14:30:35;3.10;;;1.10;;
39612;SDS011;25303;48.896;13.342;2022-09-27T14:33:38;2.55;;;0.60;;
39612;SDS011;25303;48.896;13.342;2022-09-27T14:36:28;0.68;;;0.50;;
39612;SDS011;25303;48.896;13.342;2022-09-27T14:39:31;0.27;;;0.20;;
39612;SDS011;25303;48.896;13.342;2022-09-27T14:42:43;0.65;;;0.35;;
39612;SDS011;25303;48.896;13.342;2022-09-27T14:45:27;0.50;;;0.40;;
39612;SDS011;25303;48.896;13.342;2022-09-27T14:48:19;0.52;;;0.30;;
39612;SDS011;25303;48.896;13.342;2022-09-27T14:51:15;0.40;;;0.30;;
39612;SDS011;25303;48.896;13.342;2022-09-27T14:54:00;1.60;;;0.30;;
39612;SDS011;25303;48.896;13.342;2022-09-27T14:56:45;0.90;;;0.80;;
39612;SDS011;25303;48.896;13.342;2022-09-27T14:59:34;0.50;;;0.40;;
39612;SDS011;25303;48.896;13.342;2022-09-27T15:02:18;1.23;;;0.52;;
39612;SDS011;25303;48.896;13.342;2022-09-27T15:05:10;0.60;;;0.40;;
39612;SDS011;25303;48.896;13.342;2022-09-27T15:07:56;1.02;;;0.60;;
39612;SDS011;25303;48.896;13.342;2022-09-27T15:10:41;1.33;;;0.57;;
39612;SDS011;25303;48.896;13.342;2022-09-27T15:13:25;0.60;;;0.50;;
39612;SDS011;25303;48.896;13.342;2022-09-27T15:16:11;0.60;;;0.50;;
39612;SDS011;25303;48.896;13.342;2022-09-27T15:18:59;1.95;;;0.38;;
39612;SDS011;25303;48.896;13.342;2022-09-27T15:21:47;0.60;;;0.38;;
39612;SDS011;25303;48.896;13.342;2022-09-27T15:24:36;1.83;;;0.50;;
39612;SDS011;25303;48.896;13.342;2022-09-27T15:27:21;0.43;;;0.32;;
39612;SDS011;25303;48.896;13.342;2022-09-27T15:30:15;0.28;;;0.28;;
39612;SDS011;25303;48.896;13.342;2022-09-27T15:33:00;0.47;;;0.30;;
39612;SDS011;25303;48.896;13.342;2022-09-27T15:35:47;0.32;;;0.30;;
39612;SDS011;25303;48.896;13.342;2022-09-27T15:38:33;0.30;;;0.30;;
39612;SDS011;25303;48.896;13.342;2022-09-27T15:41:19;0.47;;;0.30;;
39612;SDS011;25303;48.896;13.342;2022-09-27T15:44:02;0.70;;;0.30;;
39612;SDS011;25303;48.896;13.342;2022-09-27T15:50:30;0.50;;;0.30;;
39612;SDS011;25303;48.896;13.342;2022-09-27T15:56:24;0.30;;;0.30;;
39612;SDS011;25303;48.896;13.342;2022-09-27T15:59:08;0.40;;;0.30;;
39612;SDS011;25303;48.896;13.342;2022-09-27T16:01:58;0.28;;;0.13;;
39612;SDS011;25303;48.896;13.342;2022-09-27T16:04:48;0.20;;;0.20;;
39612;SDS011;25303;48.896;13.342;2022-09-27T16:07:31;0.50;;;0.30;;
39612;SDS011;25303;48.896;13.342;2022-09-27T16:10:16;0.93;;;0.20;;
39612;SDS011;25303;48.896;13.342;2022-09-27T16:13:00;0.40;;;0.20;;
39612;SDS011;25303;48.896;13.342;2022-09-27T16:15:43;0.90;;;0.40;;
39612;SDS011;25303;48.896;13.342;2022-09-27T16:18:27;1.30;;;0.40;;
39612;SDS011;25303;48.896;13.342;2022-09-27T16:21:11;0.77;;;0.40;;
39612;SDS011;25303;48.896;13.342;2022-09-27T16:23:54;0.28;;;0.20;;
39612;SDS011;25303;48.896;13.342;2022-09-27T16:26:39;0.47;;;0.30;;
39612;SDS011;25303;48.896;13.342;2022-09-27T16:29:22;0.30;;;0.30;;
39612;SDS011;25303;48.896;13.342;2022-09-27T16:32:05;0.85;;;0.40;;
39612;SDS011;25303;48.896;13.342;2022-09-27T16:34:49;1.77;;;0.30;;
39612;SDS011;25303;48.896;13.342;2022-09-27T16:37:32;0.20;;;0.20;;
39612;SDS011;25303;48.896;13.342;2022-09-27T16:40:16;0.30;;;0.20;;
39612;SDS011;25303;48.896;13.342;2022-09-27T16:43:01;0.30;;;0.30;;
39612;SDS011;25303;48.896;13.342;2022-09-27T16:45:47;1.77;;;0.30;;
39612;SDS011;25303;48.896;13.342;2022-09-27T16:48:30;1.25;;;0.70;;
39612;SDS011;25303;48.896;13.342;2022-09-27T16:51:14;0.50;;;0.30;;
39612;SDS011;25303;48.896;13.342;2022-09-27T16:54:16;0.73;;;0.30;;
39612;SDS011;25303;48.896;13.342;2022-09-27T16:56:59;1.08;;;0.55;;
39612;SDS011;25303;48.896;13.342;2022-09-27T16:59:43;1.10;;;0.43;;
39612;SDS011;25303;48.896;13.342;2022-09-27T17:02:27;2.30;;;0.60;;
39612;SDS011;25303;48.896;13.342;2022-09-27T17:05:10;1.63;;;0.60;;
39612;SDS011;25303;48.896;13.342;2022-09-27T17:07:53;1.63;;;1.00;;
39612;SDS011;25303;48.896;13.342;2022-09-27T17:10:36;1.77;;;1.10;;
39612;SDS011;25303;48.896;13.342;2022-09-27T17:13:19;4.22;;;2.67;;
39612;SDS011;25303;48.896;13.342;2022-09-27T17:16:04;3.90;;;2.20;;
39612;SDS011;25303;48.896;13.342;2022-09-27T17:18:47;38.35;;;17.90;;
39612;SDS011;25303;48.896;13.342;2022-09-27T17:21:30;28.30;;;17.27;;
39612;SDS011;25303;48.896;13.342;2022-09-27T17:24:18;14.85;;;9.50;;
39612;SDS011;25303;48.896;13.342;2022-09-27T17:27:01;8.57;;;6.72;;
39612;SDS011;25303;48.896;13.342;2022-09-27T17:29:44;5.47;;;3.88;;
39612;SDS011;25303;48.896;13.342;2022-09-27T17:32:29;3.58;;;2.40;;
39612;SDS011;25303;48.896;13.342;2022-09-27T17:35:11;1.98;;;1.20;;
39612;SDS011;25303;48.896;13.342;2022-09-27T17:37:55;5.22;;;3.17;;